sensor_id;sensor_type;location;lat;lon;timestamp;P1;durP1;ratioP1;P2;durP2;ratioP2
505;SDS011;551;48.524;9.056;2022-09-19T00:01:13;2.00;;;1.40;;
505;SDS011;551;48.524;9.056;2022-09-19T00:03:41;1.70;;;1.20;;
505;SDS011;551;48.524;9.056;2022-09-19T00:06:10;1.40;;;1.30;;
505;SDS011;551;48.524;9.056;2022-09-19T00:08:37;1.37;;;1.00;;
505;SDS011;551;48.524;9.056;2022-09-19T00:11:04;1.00;;;1.00;;
505;SDS011;551;48.524;9.056;2022-09-19T00:13:31;0.90;;;0.90;;
505;SDS011;551;48.524;9.056;2022-09-19T00:15:57;0.90;;;0.90;;
505;SDS011;551;48.524;9.056;2022-09-19T00:18:23;0.90;;;0.90;;
505;SDS011;551;48.524;9.056;2022-09-19T00:20:48;1.00;;;0.90;;
505;SDS011;551;48.524;9.056;2022-09-19T00:23:15;1.97;;;0.93;;
505;SDS011;551;48.524;9.056;2022-09-19T00:26:00;0.90;;;0.90;;
505;SDS011;551;48.524;9.056;2022-09-19T00:28:29;0.73;;;0.73;;
505;SDS011;551;48.524;9.056;2022-09-19T00:30:56;0.80;;;0.80;;
505;SDS011;551;48.524;9.056;2022-09-19T00:33:23;1.00;;;0.90;;
505;SDS011;551;48.524;9.056;2022-09-19T00:35:59;1.00;;;1.00;;
505;SDS011;551;48.524;9.056;2022-09-19T00:38:28;0.90;;;0.90;;
505;SDS011;551;48.524;9.056;2022-09-19T00:40:55;1.00;;;0.90;;
505;SDS011;551;48.524;9.056;2022-09-19T00:43:22;1.23;;;0.90;;
505;SDS011;551;48.524;9.056;2022-09-19T00:45:50;1.20;;;1.00;;
505;SDS011;551;48.524;9.056;2022-09-19T00:48:16;1.07;;;0.90;;
505;SDS011;551;48.524;9.056;2022-09-19T00:50:44;0.90;;;0.90;;
505;SDS011;551;48.524;9.056;2022-09-19T00:53:17;1.10;;;1.10;;
505;SDS011;551;48.524;9.056;2022-09-19T00:55:46;0.90;;;0.90;;
505;SDS011;551;48.524;9.056;2022-09-19T00:58:19;0.80;;;0.80;;
505;SDS011;551;48.524;9.056;2022-09-19T01:00:52;1.10;;;1.00;;
505;SDS011;551;48.524;9.056;2022-09-19T01:03:18;1.63;;;1.00;;
505;SDS011;551;48.524;9.056;2022-09-19T01:05:49;0.80;;;0.80;;
505;SDS011;551;48.524;9.056;2022-09-19T01:11:33;1.53;;;0.90;;
505;SDS011;551;48.524;9.056;2022-09-19T01:17:15;1.17;;;1.07;;
505;SDS011;551;48.524;9.056;2022-09-19T01:25:26;0.90;;;0.90;;
505;SDS011;551;48.524;9.056;2022-09-19T01:30:56;0.90;;;0.90;;
505;SDS011;551;48.524;9.056;2022-09-19T01:34:26;1.10;;;1.00;;
505;SDS011;551;48.524;9.056;2022-09-19T01:36:36;1.23;;;0.83;;
505;SDS011;551;48.524;9.056;2022-09-19T01:39:07;1.20;;;1.10;;
505;SDS011;551;48.524;9.056;2022-09-19T01:41:34;0.90;;;0.90;;
505;SDS011;551;48.524;9.056;2022-09-19T01:44:00;0.90;;;0.90;;
505;SDS011;551;48.524;9.056;2022-09-19T01:49:41;1.90;;;0.90;;
505;SDS011;551;48.524;9.056;2022-09-19T01:57:33;0.80;;;0.80;;
505;SDS011;551;48.524;9.056;2022-09-19T02:02:52;1.43;;;1.30;;
505;SDS011;551;48.524;9.056;2022-09-19T02:05:56;0.90;;;0.90;;
505;SDS011;551;48.524;9.056;2022-09-19T02:08:27;0.90;;;0.90;;
505;SDS011;551;48.524;9.056;2022-09-19T02:11:02;1.20;;;1.10;;
505;SDS011;551;48.524;9.056;2022-09-19T02:13:36;1.00;;;0.90;;
505;SDS011;551;48.524;9.056;2022-09-19T02:16:12;0.80;;;0.80;;
505;SDS011;551;48.524;9.056;2022-09-19T02:19:05;1.20;;;1.10;;
505;SDS011;551;48.524;9.056;2022-09-19T02:21:36;0.90;;;0.90;;
505;SDS011;551;48.524;9.056;2022-09-19T02:24:08;2.50;;;1.00;;
505;SDS011;551;48.524;9.056;2022-09-19T02:26:40;1.30;;;1.20;;
505;SDS011;551;48.524;9.056;2022-09-19T02:29:11;2.77;;;1.20;;
505;SDS011;551;48.524;9.056;2022-09-19T02:31:41;2.80;;;1.20;;
505;SDS011;551;48.524;9.056;2022-09-19T02:34:07;1.40;;;1.10;;
505;SDS011;551;48.524;9.056;2022-09-19T02:41:56;1.37;;;1.00;;
505;SDS011;551;48.524;9.056;2022-09-19T02:50:28;1.57;;;1.47;;
505;SDS011;551;48.524;9.056;2022-09-19T02:53:00;2.60;;;1.33;;
505;SDS011;551;48.524;9.056;2022-09-19T02:55:30;2.43;;;1.20;;
505;SDS011;551;48.524;9.056;2022-09-19T02:58:04;1.20;;;1.10;;
505;SDS011;551;48.524;9.056;2022-09-19T03:00:31;1.10;;;1.00;;
505;SDS011;551;48.524;9.056;2022-09-19T03:03:03;6.30;;;1.20;;
505;SDS011;551;48.524;9.056;2022-09-19T03:05:54;1.33;;;1.20;;
505;SDS011;551;48.524;9.056;2022-09-19T03:08:22;1.87;;;1.30;;
505;SDS011;551;48.524;9.056;2022-09-19T03:10:51;2.50;;;2.03;;
505;SDS011;551;48.524;9.056;2022-09-19T03:13:22;6.80;;;2.43;;
505;SDS011;551;48.524;9.056;2022-09-19T03:15:57;2.90;;;1.90;;
505;SDS011;551;48.524;9.056;2022-09-19T03:18:29;2.90;;;2.10;;
505;SDS011;551;48.524;9.056;2022-09-19T03:20:58;2.83;;;1.80;;
505;SDS011;551;48.524;9.056;2022-09-19T03:23:28;2.60;;;1.70;;
505;SDS011;551;48.524;9.056;2022-09-19T03:26:01;1.80;;;1.67;;
505;SDS011;551;48.524;9.056;2022-09-19T03:28:28;1.47;;;1.37;;
505;SDS011;551;48.524;9.056;2022-09-19T03:30:53;2.50;;;1.80;;
505;SDS011;551;48.524;9.056;2022-09-19T03:33:24;2.13;;;1.90;;
505;SDS011;551;48.524;9.056;2022-09-19T03:35:50;2.27;;;1.43;;
505;SDS011;551;48.524;9.056;2022-09-19T03:38:17;1.73;;;1.47;;
505;SDS011;551;48.524;9.056;2022-09-19T03:40:44;2.63;;;1.80;;
505;SDS011;551;48.524;9.056;2022-09-19T03:43:09;1.70;;;1.60;;
505;SDS011;551;48.524;9.056;2022-09-19T03:45:36;1.83;;;1.53;;
505;SDS011;551;48.524;9.056;2022-09-19T03:48:01;2.23;;;1.60;;
505;SDS011;551;48.524;9.056;2022-09-19T03:50:27;2.23;;;1.40;;
505;SDS011;551;48.524;9.056;2022-09-19T03:52:53;2.00;;;1.80;;
505;SDS011;551;48.524;9.056;2022-09-19T03:55:19;1.60;;;1.50;;
505;SDS011;551;48.524;9.056;2022-09-19T03:57:45;1.50;;;1.40;;
505;SDS011;551;48.524;9.056;2022-09-19T04:00:10;3.03;;;1.73;;
505;SDS011;551;48.524;9.056;2022-09-19T04:02:36;4.37;;;2.03;;
505;SDS011;551;48.524;9.056;2022-09-19T04:05:02;2.07;;;1.87;;
505;SDS011;551;48.524;9.056;2022-09-19T04:07:28;1.50;;;1.40;;
505;SDS011;551;48.524;9.056;2022-09-19T04:09:55;1.70;;;1.60;;
505;SDS011;551;48.524;9.056;2022-09-19T04:12:21;1.77;;;1.67;;
505;SDS011;551;48.524;9.056;2022-09-19T04:14:47;1.67;;;1.57;;
505;SDS011;551;48.524;9.056;2022-09-19T04:17:14;2.00;;;1.87;;
505;SDS011;551;48.524;9.056;2022-09-19T04:19:40;2.13;;;2.03;;
505;SDS011;551;48.524;9.056;2022-09-19T04:22:07;3.03;;;1.90;;
505;SDS011;551;48.524;9.056;2022-09-19T04:24:36;2.50;;;1.87;;
505;SDS011;551;48.524;9.056;2022-09-19T04:27:07;1.80;;;1.70;;
505;SDS011;551;48.524;9.056;2022-09-19T04:29:38;2.10;;;1.53;;
505;SDS011;551;48.524;9.056;2022-09-19T04:32:04;8.03;;;2.97;;
505;SDS011;551;48.524;9.056;2022-09-19T04:34:29;3.50;;;2.70;;
505;SDS011;551;48.524;9.056;2022-09-19T04:36:56;7.77;;;3.60;;
505;SDS011;551;48.524;9.056;2022-09-19T04:39:22;5.33;;;3.73;;
505;SDS011;551;48.524;9.056;2022-09-19T04:41:48;6.77;;;3.77;;
505;SDS011;551;48.524;9.056;2022-09-19T04:44:18;8.03;;;4.00;;
505;SDS011;551;48.524;9.056;2022-09-19T04:46:46;5.37;;;3.50;;
505;SDS011;551;48.524;9.056;2022-09-19T04:49:15;15.90;;;4.47;;
505;SDS011;551;48.524;9.056;2022-09-19T04:51:41;8.67;;;3.30;;
505;SDS011;551;48.524;9.056;2022-09-19T04:54:08;5.67;;;3.23;;
505;SDS011;551;48.524;9.056;2022-09-19T04:56:34;9.70;;;3.70;;
505;SDS011;551;48.524;9.056;2022-09-19T04:58:59;3.30;;;2.70;;
505;SDS011;551;48.524;9.056;2022-09-19T05:01:25;5.17;;;2.30;;
505;SDS011;551;48.524;9.056;2022-09-19T05:03:51;4.73;;;3.17;;
505;SDS011;551;48.524;9.056;2022-09-19T05:06:17;4.23;;;2.10;;
505;SDS011;551;48.524;9.056;2022-09-19T05:08:43;5.63;;;2.60;;
505;SDS011;551;48.524;9.056;2022-09-19T05:11:09;3.70;;;2.07;;
505;SDS011;551;48.524;9.056;2022-09-19T05:13:36;4.73;;;1.90;;
505;SDS011;551;48.524;9.056;2022-09-19T05:16:03;1.83;;;1.73;;
505;SDS011;551;48.524;9.056;2022-09-19T05:18:30;7.70;;;1.97;;
505;SDS011;551;48.524;9.056;2022-09-19T05:21:01;8.27;;;1.90;;
505;SDS011;551;48.524;9.056;2022-09-19T05:23:36;3.63;;;1.90;;
505;SDS011;551;48.524;9.056;2022-09-19T05:26:10;1.73;;;1.60;;
505;SDS011;551;48.524;9.056;2022-09-19T05:28:41;1.70;;;1.40;;
505;SDS011;551;48.524;9.056;2022-09-19T05:31:07;3.40;;;2.10;;
505;SDS011;551;48.524;9.056;2022-09-19T05:33:33;2.83;;;1.80;;
505;SDS011;551;48.524;9.056;2022-09-19T05:35:59;3.37;;;2.00;;
505;SDS011;551;48.524;9.056;2022-09-19T05:38:27;2.83;;;1.43;;
505;SDS011;551;48.524;9.056;2022-09-19T05:40:54;2.77;;;1.67;;
505;SDS011;551;48.524;9.056;2022-09-19T05:43:22;4.73;;;1.70;;
505;SDS011;551;48.524;9.056;2022-09-19T05:45:51;2.63;;;1.97;;
505;SDS011;551;48.524;9.056;2022-09-19T05:48:18;2.53;;;1.80;;
505;SDS011;551;48.524;9.056;2022-09-19T05:50:44;5.73;;;2.03;;
505;SDS011;551;48.524;9.056;2022-09-19T05:53:10;8.50;;;1.83;;
505;SDS011;551;48.524;9.056;2022-09-19T05:56:06;7.93;;;2.10;;
505;SDS011;551;48.524;9.056;2022-09-19T05:58:32;2.97;;;1.73;;
505;SDS011;551;48.524;9.056;2022-09-19T06:01:04;2.33;;;1.70;;
505;SDS011;551;48.524;9.056;2022-09-19T06:03:31;2.30;;;1.90;;
505;SDS011;551;48.524;9.056;2022-09-19T06:05:58;6.93;;;2.00;;
505;SDS011;551;48.524;9.056;2022-09-19T06:08:24;8.10;;;2.30;;
505;SDS011;551;48.524;9.056;2022-09-19T06:10:49;4.20;;;1.90;;
505;SDS011;551;48.524;9.056;2022-09-19T06:13:16;5.97;;;1.60;;
505;SDS011;551;48.524;9.056;2022-09-19T06:15:46;7.10;;;2.20;;
505;SDS011;551;48.524;9.056;2022-09-19T06:18:12;7.70;;;2.40;;
505;SDS011;551;48.524;9.056;2022-09-19T06:20:38;3.00;;;1.90;;
505;SDS011;551;48.524;9.056;2022-09-19T06:23:05;14.37;;;2.10;;
505;SDS011;551;48.524;9.056;2022-09-19T06:25:32;5.03;;;1.60;;
505;SDS011;551;48.524;9.056;2022-09-19T06:28:00;5.80;;;1.90;;
505;SDS011;551;48.524;9.056;2022-09-19T06:30:27;7.77;;;2.90;;
505;SDS011;551;48.524;9.056;2022-09-19T06:32:53;6.83;;;2.00;;
505;SDS011;551;48.524;9.056;2022-09-19T06:35:19;5.03;;;2.23;;
505;SDS011;551;48.524;9.056;2022-09-19T06:37:46;4.03;;;2.07;;
505;SDS011;551;48.524;9.056;2022-09-19T06:40:13;2.93;;;2.00;;
505;SDS011;551;48.524;9.056;2022-09-19T06:42:39;3.60;;;1.80;;
505;SDS011;551;48.524;9.056;2022-09-19T06:45:05;3.90;;;1.90;;
505;SDS011;551;48.524;9.056;2022-09-19T06:47:35;4.73;;;1.70;;
505;SDS011;551;48.524;9.056;2022-09-19T06:50:00;8.53;;;2.20;;
505;SDS011;551;48.524;9.056;2022-09-19T06:52:26;3.23;;;1.80;;
505;SDS011;551;48.524;9.056;2022-09-19T06:54:52;3.50;;;1.90;;
505;SDS011;551;48.524;9.056;2022-09-19T06:57:18;2.87;;;2.00;;
505;SDS011;551;48.524;9.056;2022-09-19T06:59:44;4.83;;;2.60;;
505;SDS011;551;48.524;9.056;2022-09-19T07:02:10;4.33;;;1.90;;
505;SDS011;551;48.524;9.056;2022-09-19T07:04:36;3.60;;;2.00;;
505;SDS011;551;48.524;9.056;2022-09-19T07:07:01;4.77;;;1.97;;
505;SDS011;551;48.524;9.056;2022-09-19T07:09:27;9.30;;;2.63;;
505;SDS011;551;48.524;9.056;2022-09-19T07:11:53;5.53;;;2.23;;
505;SDS011;551;48.524;9.056;2022-09-19T07:14:21;4.87;;;2.27;;
505;SDS011;551;48.524;9.056;2022-09-19T07:16:49;2.60;;;2.20;;
505;SDS011;551;48.524;9.056;2022-09-19T07:19:15;5.90;;;2.00;;
505;SDS011;551;48.524;9.056;2022-09-19T07:21:42;2.83;;;2.00;;
505;SDS011;551;48.524;9.056;2022-09-19T07:24:08;4.00;;;1.87;;
505;SDS011;551;48.524;9.056;2022-09-19T07:26:33;8.20;;;2.30;;
505;SDS011;551;48.524;9.056;2022-09-19T07:28:59;5.93;;;2.00;;
505;SDS011;551;48.524;9.056;2022-09-19T07:31:27;3.80;;;1.90;;
505;SDS011;551;48.524;9.056;2022-09-19T07:33:53;4.63;;;1.53;;
505;SDS011;551;48.524;9.056;2022-09-19T07:36:20;5.23;;;1.90;;
505;SDS011;551;48.524;9.056;2022-09-19T07:38:49;5.90;;;2.30;;
505;SDS011;551;48.524;9.056;2022-09-19T07:41:15;5.97;;;2.20;;
505;SDS011;551;48.524;9.056;2022-09-19T07:43:42;6.53;;;2.33;;
505;SDS011;551;48.524;9.056;2022-09-19T07:46:12;9.07;;;3.30;;
505;SDS011;551;48.524;9.056;2022-09-19T07:48:40;2.23;;;2.00;;
505;SDS011;551;48.524;9.056;2022-09-19T07:51:12;5.37;;;2.20;;
505;SDS011;551;48.524;9.056;2022-09-19T07:53:37;3.53;;;1.80;;
505;SDS011;551;48.524;9.056;2022-09-19T07:56:03;6.10;;;2.00;;
505;SDS011;551;48.524;9.056;2022-09-19T07:58:30;4.63;;;2.73;;
505;SDS011;551;48.524;9.056;2022-09-19T08:00:57;7.43;;;2.20;;
505;SDS011;551;48.524;9.056;2022-09-19T08:03:25;6.17;;;2.53;;
505;SDS011;551;48.524;9.056;2022-09-19T08:05:51;7.53;;;2.43;;
505;SDS011;551;48.524;9.056;2022-09-19T08:08:18;9.03;;;2.73;;
505;SDS011;551;48.524;9.056;2022-09-19T08:10:46;9.27;;;2.63;;
505;SDS011;551;48.524;9.056;2022-09-19T08:13:12;2.03;;;1.83;;
505;SDS011;551;48.524;9.056;2022-09-19T08:15:39;7.17;;;2.50;;
505;SDS011;551;48.524;9.056;2022-09-19T08:18:07;6.73;;;2.53;;
505;SDS011;551;48.524;9.056;2022-09-19T08:20:40;6.70;;;2.20;;
505;SDS011;551;48.524;9.056;2022-09-19T08:23:08;9.33;;;2.33;;
505;SDS011;551;48.524;9.056;2022-09-19T08:25:36;5.27;;;2.20;;
505;SDS011;551;48.524;9.056;2022-09-19T08:28:07;9.80;;;2.23;;
505;SDS011;551;48.524;9.056;2022-09-19T08:30:33;6.37;;;1.77;;
505;SDS011;551;48.524;9.056;2022-09-19T08:32:59;8.83;;;2.33;;
505;SDS011;551;48.524;9.056;2022-09-19T08:35:27;5.07;;;2.33;;
505;SDS011;551;48.524;9.056;2022-09-19T08:37:54;11.43;;;2.20;;
505;SDS011;551;48.524;9.056;2022-09-19T08:40:29;5.37;;;2.60;;
505;SDS011;551;48.524;9.056;2022-09-19T08:48:35;6.63;;;2.00;;
505;SDS011;551;48.524;9.056;2022-09-19T08:51:14;3.77;;;1.60;;
505;SDS011;551;48.524;9.056;2022-09-19T08:53:47;5.33;;;1.80;;
505;SDS011;551;48.524;9.056;2022-09-19T08:56:17;5.67;;;2.00;;
505;SDS011;551;48.524;9.056;2022-09-19T08:58:46;7.03;;;2.17;;
505;SDS011;551;48.524;9.056;2022-09-19T09:01:15;10.50;;;2.07;;
505;SDS011;551;48.524;9.056;2022-09-19T09:03:47;7.60;;;1.83;;
505;SDS011;551;48.524;9.056;2022-09-19T09:06:37;4.67;;;1.80;;
505;SDS011;551;48.524;9.056;2022-09-19T09:09:13;7.37;;;1.77;;
505;SDS011;551;48.524;9.056;2022-09-19T09:11:57;4.10;;;2.30;;
505;SDS011;551;48.524;9.056;2022-09-19T09:14:53;5.03;;;2.50;;
505;SDS011;551;48.524;9.056;2022-09-19T09:17:32;4.37;;;2.43;;
505;SDS011;551;48.524;9.056;2022-09-19T09:20:15;4.90;;;2.33;;
505;SDS011;551;48.524;9.056;2022-09-19T09:23:05;5.70;;;1.97;;
505;SDS011;551;48.524;9.056;2022-09-19T09:25:42;2.70;;;2.00;;
505;SDS011;551;48.524;9.056;2022-09-19T09:30:51;4.63;;;3.90;;
505;SDS011;551;48.524;9.056;2022-09-19T09:33:22;4.20;;;2.07;;
505;SDS011;551;48.524;9.056;2022-09-19T09:38:39;2.43;;;1.60;;
505;SDS011;551;48.524;9.056;2022-09-19T09:46:49;4.63;;;1.97;;
505;SDS011;551;48.524;9.056;2022-09-19T09:49:39;5.47;;;1.50;;
505;SDS011;551;48.524;9.056;2022-09-19T10:00:34;3.20;;;1.40;;
505;SDS011;551;48.524;9.056;2022-09-19T10:06:03;2.60;;;1.33;;
505;SDS011;551;48.524;9.056;2022-09-19T10:11:39;3.33;;;1.60;;
505;SDS011;551;48.524;9.056;2022-09-19T10:14:07;3.73;;;1.70;;
505;SDS011;551;48.524;9.056;2022-09-19T10:16:44;6.30;;;1.53;;
505;SDS011;551;48.524;9.056;2022-09-19T10:21:38;2.23;;;1.50;;
505;SDS011;551;48.524;9.056;2022-09-19T10:24:34;4.87;;;1.73;;
505;SDS011;551;48.524;9.056;2022-09-19T10:27:17;4.67;;;1.80;;
505;SDS011;551;48.524;9.056;2022-09-19T10:29:50;9.50;;;2.23;;
505;SDS011;551;48.524;9.056;2022-09-19T10:32:21;6.93;;;1.70;;
505;SDS011;551;48.524;9.056;2022-09-19T10:34:49;4.07;;;1.77;;
505;SDS011;551;48.524;9.056;2022-09-19T10:37:16;5.40;;;2.00;;
505;SDS011;551;48.524;9.056;2022-09-19T10:39:44;6.47;;;1.60;;
505;SDS011;551;48.524;9.056;2022-09-19T10:42:46;3.37;;;2.07;;
505;SDS011;551;48.524;9.056;2022-09-19T10:45:20;2.73;;;2.00;;
505;SDS011;551;48.524;9.056;2022-09-19T10:47:59;2.83;;;1.60;;
505;SDS011;551;48.524;9.056;2022-09-19T10:50:33;9.57;;;2.90;;
505;SDS011;551;48.524;9.056;2022-09-19T10:53:05;7.17;;;2.17;;
505;SDS011;551;48.524;9.056;2022-09-19T10:55:33;10.63;;;2.77;;
505;SDS011;551;48.524;9.056;2022-09-19T10:58:02;4.10;;;1.93;;
505;SDS011;551;48.524;9.056;2022-09-19T11:00:44;2.60;;;1.70;;
505;SDS011;551;48.524;9.056;2022-09-19T11:06:01;2.70;;;1.63;;
505;SDS011;551;48.524;9.056;2022-09-19T11:08:30;6.37;;;1.60;;
505;SDS011;551;48.524;9.056;2022-09-19T11:11:28;3.80;;;1.80;;
505;SDS011;551;48.524;9.056;2022-09-19T11:14:06;4.97;;;2.20;;
505;SDS011;551;48.524;9.056;2022-09-19T11:16:39;5.33;;;1.90;;
505;SDS011;551;48.524;9.056;2022-09-19T11:30:49;2.50;;;1.40;;
505;SDS011;551;48.524;9.056;2022-09-19T11:33:42;1.50;;;1.40;;
505;SDS011;551;48.524;9.056;2022-09-19T11:53:31;7.00;;;2.00;;
505;SDS011;551;48.524;9.056;2022-09-19T11:58:56;4.93;;;1.80;;
505;SDS011;551;48.524;9.056;2022-09-19T12:04:57;5.90;;;1.83;;
505;SDS011;551;48.524;9.056;2022-09-19T12:10:16;5.27;;;1.40;;
505;SDS011;551;48.524;9.056;2022-09-19T12:12:52;2.10;;;1.47;;
505;SDS011;551;48.524;9.056;2022-09-19T12:15:24;4.17;;;1.80;;
505;SDS011;551;48.524;9.056;2022-09-19T12:17:59;3.00;;;1.40;;
505;SDS011;551;48.524;9.056;2022-09-19T12:20:43;3.27;;;1.43;;
505;SDS011;551;48.524;9.056;2022-09-19T12:26:11;4.53;;;1.33;;
505;SDS011;551;48.524;9.056;2022-09-19T12:28:43;3.27;;;1.23;;
505;SDS011;551;48.524;9.056;2022-09-19T12:31:17;3.23;;;1.27;;
505;SDS011;551;48.524;9.056;2022-09-19T12:33:50;2.30;;;1.40;;
505;SDS011;551;48.524;9.056;2022-09-19T12:38:50;2.30;;;1.30;;
505;SDS011;551;48.524;9.056;2022-09-19T12:41:23;2.13;;;1.40;;
505;SDS011;551;48.524;9.056;2022-09-19T12:50:00;3.47;;;1.40;;
505;SDS011;551;48.524;9.056;2022-09-19T12:52:17;2.27;;;1.30;;
505;SDS011;551;48.524;9.056;2022-09-19T13:00:18;2.83;;;1.47;;
505;SDS011;551;48.524;9.056;2022-09-19T13:02:50;2.33;;;1.33;;
505;SDS011;551;48.524;9.056;2022-09-19T13:07:56;3.20;;;1.70;;
505;SDS011;551;48.524;9.056;2022-09-19T13:13:12;2.27;;;1.50;;
505;SDS011;551;48.524;9.056;2022-09-19T13:15:59;4.80;;;1.47;;
505;SDS011;551;48.524;9.056;2022-09-19T13:18:26;3.80;;;1.70;;
505;SDS011;551;48.524;9.056;2022-09-19T13:21:16;2.63;;;1.57;;
505;SDS011;551;48.524;9.056;2022-09-19T13:24:12;3.63;;;1.60;;
505;SDS011;551;48.524;9.056;2022-09-19T13:26:37;1.80;;;1.30;;
505;SDS011;551;48.524;9.056;2022-09-19T13:29:04;4.60;;;1.20;;
505;SDS011;551;48.524;9.056;2022-09-19T13:36:58;2.60;;;1.20;;
505;SDS011;551;48.524;9.056;2022-09-19T13:39:44;2.10;;;1.30;;
505;SDS011;551;48.524;9.056;2022-09-19T13:42:20;4.87;;;1.47;;
505;SDS011;551;48.524;9.056;2022-09-19T13:45:00;2.30;;;1.30;;
505;SDS011;551;48.524;9.056;2022-09-19T13:47:37;8.23;;;1.70;;
505;SDS011;551;48.524;9.056;2022-09-19T13:52:41;4.30;;;1.33;;
505;SDS011;551;48.524;9.056;2022-09-19T13:57:37;4.30;;;1.47;;
505;SDS011;551;48.524;9.056;2022-09-19T14:00:10;1.50;;;1.40;;
505;SDS011;551;48.524;9.056;2022-09-19T14:03:06;1.80;;;1.10;;
505;SDS011;551;48.524;9.056;2022-09-19T14:11:43;3.27;;;1.80;;
505;SDS011;551;48.524;9.056;2022-09-19T14:14:52;3.90;;;1.80;;
505;SDS011;551;48.524;9.056;2022-09-19T14:19:53;3.93;;;1.50;;
505;SDS011;551;48.524;9.056;2022-09-19T14:25:15;4.30;;;1.50;;
505;SDS011;551;48.524;9.056;2022-09-19T14:30:55;4.30;;;1.60;;
505;SDS011;551;48.524;9.056;2022-09-19T14:36:20;1.90;;;1.33;;
505;SDS011;551;48.524;9.056;2022-09-19T14:39:18;2.10;;;1.90;;
505;SDS011;551;48.524;9.056;2022-09-19T14:42:07;2.70;;;1.40;;
505;SDS011;551;48.524;9.056;2022-09-19T14:47:42;2.30;;;1.60;;
505;SDS011;551;48.524;9.056;2022-09-19T14:50:44;2.60;;;1.63;;
505;SDS011;551;48.524;9.056;2022-09-19T14:53:22;2.43;;;1.90;;
505;SDS011;551;48.524;9.056;2022-09-19T14:55:51;3.43;;;1.50;;
505;SDS011;551;48.524;9.056;2022-09-19T14:58:22;2.07;;;1.40;;
505;SDS011;551;48.524;9.056;2022-09-19T15:01:09;1.50;;;1.30;;
505;SDS011;551;48.524;9.056;2022-09-19T15:03:47;2.70;;;1.23;;
505;SDS011;551;48.524;9.056;2022-09-19T15:06:28;4.30;;;1.70;;
505;SDS011;551;48.524;9.056;2022-09-19T15:08:56;2.57;;;1.70;;
505;SDS011;551;48.524;9.056;2022-09-19T15:11:22;3.43;;;2.00;;
505;SDS011;551;48.524;9.056;2022-09-19T15:13:51;3.03;;;1.93;;
505;SDS011;551;48.524;9.056;2022-09-19T15:16:18;2.53;;;1.80;;
505;SDS011;551;48.524;9.056;2022-09-19T15:18:46;2.30;;;1.30;;
505;SDS011;551;48.524;9.056;2022-09-19T15:21:16;1.77;;;1.30;;
505;SDS011;551;48.524;9.056;2022-09-19T15:23:44;2.37;;;1.70;;
505;SDS011;551;48.524;9.056;2022-09-19T15:26:19;3.17;;;1.60;;
505;SDS011;551;48.524;9.056;2022-09-19T15:28:53;1.67;;;1.33;;
505;SDS011;551;48.524;9.056;2022-09-19T15:31:22;2.90;;;1.40;;
505;SDS011;551;48.524;9.056;2022-09-19T15:36:26;4.73;;;1.67;;
505;SDS011;551;48.524;9.056;2022-09-19T15:38:53;3.73;;;1.50;;
505;SDS011;551;48.524;9.056;2022-09-19T15:41:19;6.60;;;1.63;;
505;SDS011;551;48.524;9.056;2022-09-19T15:43:47;3.10;;;1.40;;
505;SDS011;551;48.524;9.056;2022-09-19T15:48:54;2.90;;;1.50;;
505;SDS011;551;48.524;9.056;2022-09-19T15:51:28;3.40;;;1.50;;
505;SDS011;551;48.524;9.056;2022-09-19T15:53:57;3.47;;;1.50;;
505;SDS011;551;48.524;9.056;2022-09-19T15:56:24;3.30;;;1.73;;
505;SDS011;551;48.524;9.056;2022-09-19T16:01:19;2.00;;;1.60;;
505;SDS011;551;48.524;9.056;2022-09-19T16:03:57;3.17;;;1.40;;
505;SDS011;551;48.524;9.056;2022-09-19T16:09:30;4.60;;;1.80;;
505;SDS011;551;48.524;9.056;2022-09-19T16:11:57;2.40;;;1.57;;
505;SDS011;551;48.524;9.056;2022-09-19T16:16:58;5.57;;;1.50;;
505;SDS011;551;48.524;9.056;2022-09-19T16:21:55;3.73;;;1.60;;
505;SDS011;551;48.524;9.056;2022-09-19T16:24:25;1.70;;;1.53;;
505;SDS011;551;48.524;9.056;2022-09-19T16:26:54;1.50;;;1.40;;
505;SDS011;551;48.524;9.056;2022-09-19T16:29:25;1.80;;;1.40;;
505;SDS011;551;48.524;9.056;2022-09-19T16:31:53;4.13;;;1.67;;
505;SDS011;551;48.524;9.056;2022-09-19T16:37:02;3.20;;;1.80;;
505;SDS011;551;48.524;9.056;2022-09-19T16:41:58;4.37;;;2.57;;
505;SDS011;551;48.524;9.056;2022-09-19T16:44:34;5.57;;;1.90;;
505;SDS011;551;48.524;9.056;2022-09-19T16:49:32;3.13;;;1.80;;
505;SDS011;551;48.524;9.056;2022-09-19T16:51:59;3.83;;;1.47;;
505;SDS011;551;48.524;9.056;2022-09-19T16:54:24;1.70;;;1.60;;
505;SDS011;551;48.524;9.056;2022-09-19T16:56:50;5.50;;;2.27;;
505;SDS011;551;48.524;9.056;2022-09-19T16:59:16;2.30;;;1.70;;
505;SDS011;551;48.524;9.056;2022-09-19T17:01:44;6.50;;;2.00;;
505;SDS011;551;48.524;9.056;2022-09-19T17:04:14;2.70;;;1.70;;
505;SDS011;551;48.524;9.056;2022-09-19T17:06:41;4.60;;;2.03;;
505;SDS011;551;48.524;9.056;2022-09-19T17:09:07;4.03;;;2.13;;
505;SDS011;551;48.524;9.056;2022-09-19T17:11:32;2.90;;;2.03;;
505;SDS011;551;48.524;9.056;2022-09-19T17:13:58;2.80;;;1.90;;
505;SDS011;551;48.524;9.056;2022-09-19T17:16:23;7.37;;;3.70;;
505;SDS011;551;48.524;9.056;2022-09-19T17:18:49;8.63;;;3.07;;
505;SDS011;551;48.524;9.056;2022-09-19T17:21:15;6.87;;;2.80;;
505;SDS011;551;48.524;9.056;2022-09-19T17:23:41;4.07;;;3.00;;
505;SDS011;551;48.524;9.056;2022-09-19T17:26:09;4.03;;;2.80;;
505;SDS011;551;48.524;9.056;2022-09-19T17:28:34;8.87;;;3.87;;
505;SDS011;551;48.524;9.056;2022-09-19T17:31:00;8.40;;;3.30;;
505;SDS011;551;48.524;9.056;2022-09-19T17:33:27;12.80;;;3.70;;
505;SDS011;551;48.524;9.056;2022-09-19T17:35:53;5.40;;;3.20;;
505;SDS011;551;48.524;9.056;2022-09-19T17:38:24;7.17;;;3.67;;
505;SDS011;551;48.524;9.056;2022-09-19T17:40:51;7.10;;;3.50;;
505;SDS011;551;48.524;9.056;2022-09-19T17:43:17;4.90;;;2.50;;
505;SDS011;551;48.524;9.056;2022-09-19T17:45:45;3.20;;;2.03;;
505;SDS011;551;48.524;9.056;2022-09-19T17:48:13;4.17;;;2.10;;
505;SDS011;551;48.524;9.056;2022-09-19T17:50:40;6.77;;;1.80;;
505;SDS011;551;48.524;9.056;2022-09-19T17:53:06;2.63;;;1.87;;
505;SDS011;551;48.524;9.056;2022-09-19T17:55:33;4.20;;;2.50;;
505;SDS011;551;48.524;9.056;2022-09-19T17:57:59;6.80;;;2.50;;
505;SDS011;551;48.524;9.056;2022-09-19T18:00:24;9.03;;;2.37;;
505;SDS011;551;48.524;9.056;2022-09-19T18:02:50;2.57;;;1.53;;
505;SDS011;551;48.524;9.056;2022-09-19T18:05:35;5.17;;;1.90;;
505;SDS011;551;48.524;9.056;2022-09-19T18:08:00;5.10;;;1.60;;
505;SDS011;551;48.524;9.056;2022-09-19T18:10:27;5.33;;;2.23;;
505;SDS011;551;48.524;9.056;2022-09-19T18:12:54;4.90;;;2.30;;
505;SDS011;551;48.524;9.056;2022-09-19T18:15:21;3.33;;;2.17;;
505;SDS011;551;48.524;9.056;2022-09-19T18:17:51;3.60;;;2.43;;
505;SDS011;551;48.524;9.056;2022-09-19T18:20:20;2.47;;;1.70;;
505;SDS011;551;48.524;9.056;2022-09-19T18:22:47;5.63;;;1.90;;
505;SDS011;551;48.524;9.056;2022-09-19T18:25:14;4.37;;;2.17;;
505;SDS011;551;48.524;9.056;2022-09-19T18:27:42;3.43;;;1.90;;
505;SDS011;551;48.524;9.056;2022-09-19T18:30:12;2.90;;;2.20;;
505;SDS011;551;48.524;9.056;2022-09-19T18:32:43;2.73;;;2.23;;
505;SDS011;551;48.524;9.056;2022-09-19T18:35:10;7.87;;;3.00;;
505;SDS011;551;48.524;9.056;2022-09-19T18:37:37;3.43;;;2.13;;
505;SDS011;551;48.524;9.056;2022-09-19T18:40:03;4.97;;;2.63;;
505;SDS011;551;48.524;9.056;2022-09-19T18:42:30;3.43;;;2.53;;
505;SDS011;551;48.524;9.056;2022-09-19T18:44:56;8.00;;;2.53;;
505;SDS011;551;48.524;9.056;2022-09-19T18:47:21;4.50;;;2.77;;
505;SDS011;551;48.524;9.056;2022-09-19T18:49:47;5.40;;;3.47;;
505;SDS011;551;48.524;9.056;2022-09-19T18:52:14;3.40;;;2.47;;
505;SDS011;551;48.524;9.056;2022-09-19T18:54:40;4.80;;;3.10;;
505;SDS011;551;48.524;9.056;2022-09-19T18:57:05;5.77;;;2.50;;
505;SDS011;551;48.524;9.056;2022-09-19T18:59:32;5.67;;;2.87;;
505;SDS011;551;48.524;9.056;2022-09-19T19:01:57;6.73;;;2.23;;
505;SDS011;551;48.524;9.056;2022-09-19T19:04:23;4.90;;;2.83;;
505;SDS011;551;48.524;9.056;2022-09-19T19:06:49;4.30;;;2.30;;
505;SDS011;551;48.524;9.056;2022-09-19T19:09:15;3.93;;;2.07;;
505;SDS011;551;48.524;9.056;2022-09-19T19:11:40;4.00;;;2.00;;
505;SDS011;551;48.524;9.056;2022-09-19T19:14:06;2.77;;;1.90;;